createdAt,value
2023-07-16T00:05:52.333Z,22.2
2023-07-16T00:21:01.500Z,22.1
2023-07-16T00:36:11.151Z,22
2023-07-16T00:51:20.772Z,21.9
2023-07-16T01:06:30.422Z,21.7
2023-07-16T01:21:40.294Z,21.5
2023-07-16T01:36:49.550Z,21.5
2023-07-16T01:51:58.825Z,21.5
2023-07-16T02:07:08.232Z,21.5
2023-07-16T02:22:18.463Z,21.3
2023-07-16T02:37:28.098Z,21.2
2023-07-16T02:52:38.228Z,21.1
2023-07-16T03:07:47.785Z,20.9
2023-07-16T03:22:57.225Z,20.7
2023-07-16T03:38:07.475Z,20.6
2023-07-16T03:53:16.751Z,20.5
2023-07-16T04:08:26.200Z,20.5
2023-07-16T04:23:35.968Z,20.5
2023-07-16T04:38:45.717Z,20.5
2023-07-16T04:53:57.000Z,20.3
2023-07-16T05:09:06.391Z,20.2
2023-07-16T05:24:16.447Z,20.3
2023-07-16T05:39:26.914Z,20.4
2023-07-16T05:54:36.489Z,20.5
2023-07-16T06:09:47.393Z,20.7
2023-07-16T06:24:58.808Z,20.7
2023-07-16T06:40:08.587Z,21
2023-07-16T06:55:18.220Z,21.1
2023-07-16T07:10:28.365Z,21.4
2023-07-16T07:25:38.219Z,21.7
2023-07-16T07:40:48.321Z,22
2023-07-16T07:55:58.725Z,22.1
2023-07-16T08:11:08.098Z,22.1
2023-07-16T08:26:17.982Z,22.2
2023-07-16T08:41:29.554Z,22.1
2023-07-16T08:56:39.535Z,22.2
2023-07-16T09:11:49.347Z,22.3
2023-07-16T09:26:59.390Z,22.7
2023-07-16T09:42:09.652Z,23
2023-07-16T09:57:19.218Z,23.2
2023-07-16T10:12:29.059Z,23.3
2023-07-16T10:27:38.870Z,23.6
2023-07-16T10:42:48.809Z,23.8
2023-07-16T10:57:59.479Z,23.9
2023-07-16T11:13:08.951Z,24.2
2023-07-16T11:28:18.604Z,24.5
2023-07-16T11:43:28.906Z,24.5
2023-07-16T11:58:38.708Z,24.7
2023-07-16T12:13:49.000Z,25
2023-07-16T12:28:59.533Z,26.9
2023-07-16T12:44:08.847Z,25.9
2023-07-16T12:59:18.809Z,25.4
2023-07-16T13:14:28.854Z,25.7
2023-07-16T13:29:38.920Z,25.8
2023-07-16T13:44:49.233Z,26.5
2023-07-16T13:59:59.289Z,26.5
2023-07-16T14:15:09.502Z,27.7
2023-07-16T14:30:20.555Z,28.8
2023-07-16T14:45:30.304Z,29.4
2023-07-16T15:00:40.534Z,28.9
2023-07-16T15:15:49.876Z,28.6
2023-07-16T15:30:59.730Z,27.8
2023-07-16T15:46:08.988Z,27.5
2023-07-16T16:01:18.900Z,27.5
2023-07-16T16:16:30.387Z,27.1
2023-07-16T16:31:39.804Z,27.1
2023-07-16T16:46:49.971Z,27
2023-07-16T17:02:00.111Z,26.3
2023-07-16T17:17:09.443Z,25.7
2023-07-16T17:32:19.025Z,25.3
2023-07-16T17:47:28.741Z,25
2023-07-16T18:02:39.183Z,24.7
2023-07-16T18:17:49.339Z,24.5
2023-07-16T18:33:01.217Z,24.3
2023-07-16T18:48:12.043Z,24.3
2023-07-16T19:03:21.852Z,24.1
2023-07-16T19:18:31.542Z,23.9
2023-07-16T19:33:41.514Z,23.6
2023-07-16T19:48:51.208Z,23.4
2023-07-16T20:04:01.514Z,23.3
2023-07-16T20:19:13.570Z,23.2
2023-07-16T20:34:23.668Z,23.1
2023-07-16T20:49:33.237Z,23
2023-07-16T21:04:42.949Z,22.8
2023-07-16T21:19:52.437Z,22.6
2023-07-16T21:35:02.002Z,22.3
2023-07-16T21:50:11.814Z,22.2
2023-07-16T22:05:21.193Z,22.1
2023-07-16T22:20:31.140Z,22
2023-07-16T22:35:40.428Z,21.9
2023-07-16T22:50:50.597Z,21.7
2023-07-16T23:06:00.442Z,21.5
2023-07-16T23:21:09.941Z,21.3
2023-07-16T23:36:19.414Z,21.3
2023-07-16T23:51:28.555Z,21.3
